Ruffin, North Carolina
Current Conditions -  °F | °C
As of 10:06 PM on Wednesday 26 Nov 2014 (Local Time) from KDAN Reporting Station
Haze Haze  
Wind Chill: 37°   Ceiling: 5000
Heat Index: 37°   Visibility: 3mi
Dew Point: 36°   Wind: 3mph
Humidity: 96%   Direction: 230°SW
Pressure: 30.04"   Gusts: NA
Location:  36.45°N, 79.54°W
Report Text: KDAN 270306Z AUTO 23003KT 3SM BR FEW001 OVC050 03/02 A3004 RMK AO2 T00280022
Loading
Personal Weather Stations






























Interactive Weather Map New forecast layout! Learn more

10-Day Weather Forecast

Advertisements
Track Severe Weather on mobile